createdAt,value
2022-08-22T00:01:07.584Z,100885.16
2022-08-22T00:02:41.976Z,100796.06
2022-08-22T00:02:56.360Z,100848.06
2022-08-22T00:03:03.075Z,100777.88
2022-08-22T00:03:15.676Z,100881.63
2022-08-22T00:03:55.026Z,100884.31
2022-08-22T00:06:42.165Z,100878.69
2022-08-22T00:09:29.571Z,100882.28
2022-08-22T00:12:18.259Z,100877.53
2022-08-22T00:14:58.339Z,100877.22
2022-08-22T00:17:49.426Z,100873.56
2022-08-22T00:20:37.479Z,100869.63
2022-08-22T00:23:32.079Z,100876.88
2022-08-22T00:26:06.482Z,100867.09
2022-08-22T00:28:47.040Z,100862.91
2022-08-22T00:31:35.712Z,100863.41
2022-08-22T00:34:18.249Z,100862.25
2022-08-22T00:37:10.869Z,100860.03
2022-08-22T00:39:46.117Z,100857.78
2022-08-22T00:42:29.322Z,100862.19
2022-08-22T00:45:16.848Z,100869.16
2022-08-22T00:47:56.257Z,100863.28
2022-08-22T00:50:42.968Z,100865.50
2022-08-22T00:53:22.359Z,100867.66
2022-08-22T00:56:26.461Z,100868.50
2022-08-22T00:59:22.721Z,100868.09
2022-08-22T01:02:34.918Z,100873.63
2022-08-22T01:05:17.687Z,100876.88
2022-08-22T01:07:57.322Z,100879.66
2022-08-22T01:10:44.882Z,100873.75
2022-08-22T01:13:36.815Z,100867.88
2022-08-22T01:16:17.531Z,100875.09
2022-08-22T01:19:31.993Z,100878.13
2022-08-22T01:22:18.772Z,100876.13
2022-08-22T01:28:17.213Z,100871.63
2022-08-22T01:31:19.784Z,100871.06
2022-08-22T01:34:13.043Z,100867.66
2022-08-22T01:37:11.821Z,100869.91
2022-08-22T01:40:02.680Z,100870.44
2022-08-22T01:42:47.687Z,100872.09
2022-08-22T01:45:14.036Z,100873.47
2022-08-22T01:47:54.203Z,100865.34
2022-08-22T01:50:27.061Z,100873.16
2022-08-22T01:53:04.517Z,100865.56
2022-08-22T01:56:05.584Z,100866.09
2022-08-22T01:58:36.199Z,100868.81
2022-08-22T02:01:17.667Z,100862.94
2022-08-22T02:04:00.944Z,100867.09
2022-08-22T02:06:49.185Z,100867.88
2022-08-22T02:09:52.397Z,100861.72
2022-08-22T02:12:25.617Z,100867.81
2022-08-22T02:15:12.436Z,100864.19
2022-08-22T02:18:02.323Z,100867.22
2022-08-22T02:20:40.629Z,100868.06
2022-08-22T02:23:32.481Z,100862.75
2022-08-22T02:26:01.609Z,100858.88
2022-08-22T02:28:41.087Z,100862.81
2022-08-22T02:31:33.090Z,100865.03
2022-08-22T02:34:03.261Z,100856.41
2022-08-22T02:36:40.446Z,100850.00
2022-08-22T02:39:45.786Z,100856.09
2022-08-22T02:42:34.365Z,100850.72
2022-08-22T02:45:21.411Z,100850.09
2022-08-22T02:48:14.747Z,100845.34
2022-08-22T02:51:01.535Z,100845.00
2022-08-22T02:54:02.210Z,100850.75
2022-08-22T02:56:37.207Z,100844.53
2022-08-22T02:59:32.111Z,100852.84
2022-08-22T03:02:37.044Z,100847.19
2022-08-22T03:05:30.369Z,100843.25
2022-08-22T03:08:05.169Z,100836.28
2022-08-22T03:10:40.935Z,100842.09
2022-08-22T03:13:12.004Z,100838.97
2022-08-22T03:15:49.227Z,100837.56
2022-08-22T03:18:22.716Z,100829.72
2022-08-22T03:20:59.152Z,100830.50
2022-08-22T03:23:28.404Z,100830.41
2022-08-22T03:26:07.622Z,100836.25
2022-08-22T03:29:00.503Z,100835.31
2022-08-22T03:31:29.137Z,100832.22
2022-08-22T03:34:31.164Z,100842.16
2022-08-22T03:37:00.437Z,100835.44
2022-08-22T03:39:48.703Z,100843.72
2022-08-22T03:42:50.061Z,100837.50
2022-08-22T03:45:25.955Z,100836.56
2022-08-22T03:48:13.558Z,100839.22
2022-08-22T03:50:55.178Z,100835.28
2022-08-22T03:53:46.275Z,100836.28
2022-08-22T03:56:26.181Z,100837.03
2022-08-22T03:59:34.399Z,100836.97
2022-08-22T04:02:42.338Z,100831.94
2022-08-22T04:05:33.989Z,100833.75
2022-08-22T04:08:26.749Z,100841.53
2022-08-22T04:11:34.553Z,100836.72
2022-08-22T04:14:15.830Z,100829.97
2022-08-22T04:17:11.412Z,100843.53
2022-08-22T04:19:46.793Z,100832.66
2022-08-22T04:22:13.226Z,100832.91
2022-08-22T04:24:55.129Z,100838.47
2022-08-22T04:27:36.611Z,100835.94
2022-08-22T04:30:18.439Z,100834.34
2022-08-22T04:32:52.906Z,100833.25
2022-08-22T04:35:31.289Z,100833.50
2022-08-22T04:38:22.099Z,100840.16
2022-08-22T04:40:54.274Z,100837.63
2022-08-22T04:43:40.400Z,100840.41
2022-08-22T04:46:23.677Z,100838.13
2022-08-22T04:48:59.161Z,100838.03
2022-08-22T04:51:41.500Z,100835.75
2022-08-22T04:54:29.606Z,100845.69
2022-08-22T04:57:09.309Z,100837.59
2022-08-22T04:59:36.562Z,100848.47
2022-08-22T05:02:08.602Z,100840.13
2022-08-22T05:04:40.984Z,100851.25
2022-08-22T05:07:15.098Z,100845.91
2022-08-22T05:09:53.752Z,100862.34
2022-08-22T05:12:27.078Z,100861.75
2022-08-22T05:15:23.137Z,100860.06
2022-08-22T05:17:53.254Z,100861.66
2022-08-22T05:20:23.489Z,100865.53
2022-08-22T05:23:00.084Z,100859.97
2022-08-22T05:25:30.915Z,100866.03
2022-08-22T05:28:12.152Z,100866.03
2022-08-22T05:30:39.971Z,100874.25
2022-08-22T05:33:16.427Z,100865.69
2022-08-22T05:35:59.867Z,100868.44
2022-08-22T05:38:35.143Z,100867.88
2022-08-22T05:41:08.618Z,100871.22
2022-08-22T05:43:40.613Z,100868.22
2022-08-22T05:46:15.965Z,100870.72
2022-08-22T05:48:59.854Z,100871.34
2022-08-22T05:51:36.434Z,100869.38
2022-08-22T05:54:22.849Z,100865.00
2022-08-22T05:57:26.311Z,100869.25
2022-08-22T06:00:01.177Z,100871.25
2022-08-22T06:03:01.365Z,100874.13
2022-08-22T06:05:32.857Z,100874.25
2022-08-22T06:08:14.248Z,100868.28
2022-08-22T06:10:48.274Z,100868.97
2022-08-22T06:13:34.877Z,100865.75
2022-08-22T06:16:25.992Z,100868.13
2022-08-22T06:18:53.250Z,100870.81
2022-08-22T06:21:33.726Z,100871.34
2022-08-22T06:24:09.657Z,100863.75
2022-08-22T06:26:39.972Z,100870.06
2022-08-22T06:29:08.523Z,100876.38
2022-08-22T06:31:48.096Z,100877.34
2022-08-22T06:34:18.066Z,100890.31
2022-08-22T06:36:48.470Z,100888.75
2022-08-22T06:39:18.448Z,100890.56
2022-08-22T06:41:55.062Z,100891.53
2022-08-22T06:44:26.919Z,100893.38
2022-08-22T06:46:57.867Z,100889.63
2022-08-22T06:49:26.708Z,100888.38
2022-08-22T06:51:59.865Z,100891.59
2022-08-22T06:54:34.286Z,100887.81
2022-08-22T06:57:03.297Z,100894.59
2022-08-22T06:59:33.669Z,100886.56
2022-08-22T07:02:16.457Z,100878.03
2022-08-22T07:04:43.547Z,100878.19
2022-08-22T07:07:10.028Z,100872.94
2022-08-22T07:09:40.333Z,100865.50
2022-08-22T07:12:19.974Z,100860.50
2022-08-22T07:14:52.007Z,100858.91
2022-08-22T07:17:22.738Z,100860.91
2022-08-22T07:20:08.302Z,100862.09
2022-08-22T07:22:37.435Z,100864.09
2022-08-22T07:25:12.708Z,100863.03
2022-08-22T07:27:48.852Z,100860.34
2022-08-22T07:30:28.084Z,100860.66
2022-08-22T07:33:25.678Z,100861.53
2022-08-22T07:35:53.581Z,100861.31
2022-08-22T07:38:43.025Z,100856.00
2022-08-22T07:41:20.788Z,100852.41
2022-08-22T07:44:19.248Z,100852.16
2022-08-22T07:47:11.448Z,100853.00
2022-08-22T07:49:57.562Z,100849.69
2022-08-22T07:52:25.056Z,100847.19
2022-08-22T07:55:20.665Z,100863.38
2022-08-22T07:57:55.489Z,100844.97
2022-08-22T08:00:23.684Z,100843.59
2022-08-22T08:02:54.271Z,100856.47
2022-08-22T08:05:24.001Z,100856.75
2022-08-22T08:07:53.889Z,100853.94
2022-08-22T08:10:28.458Z,100855.59
2022-08-22T08:13:02.334Z,100853.31
2022-08-22T08:15:32.197Z,100842.66
2022-08-22T08:18:03.783Z,100847.09
2022-08-22T08:20:32.472Z,100846.19
2022-08-22T08:22:59.521Z,100841.34
2022-08-22T08:25:29.305Z,100836.19
2022-08-22T08:28:17.139Z,100830.72
2022-08-22T08:30:55.307Z,100837.66
2022-08-22T08:33:26.924Z,100830.75
2022-08-22T08:36:19.520Z,100828.41
2022-08-22T08:39:14.129Z,100824.38
2022-08-22T08:42:03.385Z,100822.09
2022-08-22T08:44:38.840Z,100819.50
2022-08-22T08:47:42.808Z,100815.75
2022-08-22T08:50:24.046Z,100809.72
2022-08-22T08:52:53.179Z,100804.28
2022-08-22T08:55:30.815Z,100807.50
2022-08-22T08:58:07.020Z,100801.22
2022-08-22T09:00:51.141Z,100793.25
2022-08-22T09:03:59.238Z,100790.41
2022-08-22T09:09:35.150Z,100777.09
2022-08-22T09:12:13.563Z,100775.72
2022-08-22T09:15:11.810Z,100777.47
2022-08-22T09:18:04.657Z,100780.06
2022-08-22T09:20:49.290Z,100771.13
2022-08-22T09:23:53.902Z,100772.25
2022-08-22T09:26:52.098Z,100770.50
2022-08-22T09:29:55.192Z,100764.31
2022-08-22T09:32:42.276Z,100758.31
2022-08-22T09:35:27.380Z,100761.28
2022-08-22T09:37:53.827Z,100758.06
2022-08-22T09:40:15.327Z,100785.72
2022-08-22T09:40:52.279Z,100758.25
2022-08-22T09:43:24.700Z,100748.09
2022-08-22T09:46:06.065Z,100739.94
2022-08-22T09:49:07.776Z,100743.88
2022-08-22T09:52:15.145Z,100739.00
2022-08-22T09:55:41.032Z,100743.09
2022-08-22T09:58:41.763Z,100722.47
2022-08-22T10:01:33.309Z,100729.50
2022-08-22T10:04:26.103Z,100721.81
2022-08-22T10:07:12.174Z,100716.22
2022-08-22T10:09:58.824Z,100717.75
2022-08-22T10:12:36.570Z,100714.31
2022-08-22T10:15:41.195Z,100713.84
2022-08-22T10:18:22.540Z,100711.03
2022-08-22T10:21:09.491Z,100704.75
2022-08-22T10:23:45.836Z,100697.47
2022-08-22T10:26:44.428Z,100697.28
2022-08-22T10:29:25.934Z,100690.78
2022-08-22T10:32:27.016Z,100692.78
2022-08-22T10:34:59.597Z,100681.81
2022-08-22T10:37:53.356Z,100685.97
2022-08-22T10:40:29.147Z,100688.94
2022-08-22T10:43:07.945Z,100688.09
2022-08-22T10:45:39.714Z,100674.56
2022-08-22T10:48:30.650Z,100676.31
2022-08-22T10:51:43.136Z,100666.38
2022-08-22T10:54:37.347Z,100663.06
2022-08-22T10:57:26.802Z,100655.00
2022-08-22T11:00:22.726Z,100657.81
2022-08-22T11:03:02.433Z,100658.41
2022-08-22T11:05:35.451Z,100655.34
2022-08-22T11:08:34.619Z,100640.94
2022-08-22T11:11:19.043Z,100636.84
2022-08-22T11:14:19.267Z,100634.03
2022-08-22T11:16:56.383Z,100630.44
2022-08-22T11:19:34.018Z,100634.59
2022-08-22T11:22:25.353Z,100625.59
2022-08-22T11:25:35.844Z,100623.94
2022-08-22T11:28:05.381Z,100617.19
2022-08-22T11:30:44.914Z,100612.34
2022-08-22T11:33:33.813Z,100611.88
2022-08-22T11:36:42.232Z,100601.66
2022-08-22T11:39:30.669Z,100601.47
2022-08-22T11:42:06.697Z,100602.16
2022-08-22T11:44:50.197Z,100601.41
2022-08-22T11:47:24.802Z,100599.22
2022-08-22T11:50:13.429Z,100591.13
2022-08-22T11:52:55.546Z,100587.78
2022-08-22T11:55:29.617Z,100591.47
2022-08-22T11:58:06.737Z,100584.69
2022-08-22T12:00:55.280Z,100585.47
2022-08-22T12:03:36.570Z,100572.66
2022-08-22T12:06:39.327Z,100562.06
2022-08-22T12:09:27.776Z,100566.03
2022-08-22T12:12:33.991Z,100566.47
2022-08-22T12:15:08.940Z,100574.47
2022-08-22T12:18:00.943Z,100576.38
2022-08-22T12:21:00.441Z,100562.28
2022-08-22T12:23:48.769Z,100556.88
2022-08-22T12:26:55.691Z,100548.16
2022-08-22T12:29:57.651Z,100537.59
2022-08-22T12:32:39.854Z,100536.56
2022-08-22T12:35:16.643Z,100543.44
2022-08-22T12:38:28.453Z,100546.38
2022-08-22T12:41:12.187Z,100531.91
2022-08-22T12:44:06.232Z,100535.44
2022-08-22T12:46:52.124Z,100534.34
2022-08-22T12:49:36.885Z,100534.56
2022-08-22T12:52:25.064Z,100530.50
2022-08-22T12:55:08.950Z,100524.50
2022-08-22T12:57:56.584Z,100521.72
2022-08-22T13:00:40.287Z,100514.34
2022-08-22T13:03:13.027Z,100521.94
2022-08-22T13:05:56.287Z,100523.31
2022-08-22T13:08:33.369Z,100522.88
2022-08-22T13:11:22.833Z,100521.59
2022-08-22T13:13:57.318Z,100522.06
2022-08-22T13:16:26.185Z,100524.84
2022-08-22T13:19:00.344Z,100517.91
2022-08-22T13:21:39.940Z,100520.09
2022-08-22T13:24:12.397Z,100510.81
2022-08-22T13:26:58.295Z,100510.28
2022-08-22T13:29:39.552Z,100513.63
2022-08-22T13:32:18.910Z,100511.28
2022-08-22T13:34:55.010Z,100510.53
2022-08-22T13:37:29.014Z,100512.97
2022-08-22T13:40:03.740Z,100508.31
2022-08-22T13:42:40.073Z,100501.03
2022-08-22T13:45:14.070Z,100507.53
2022-08-22T13:47:49.261Z,100507.03
2022-08-22T13:50:23.070Z,100494.44
2022-08-22T13:53:05.734Z,100500.13
2022-08-22T13:55:43.989Z,100497.97
2022-08-22T13:58:31.536Z,100508.78
2022-08-22T14:01:25.567Z,100498.50
2022-08-22T14:03:54.834Z,100501.59
2022-08-22T14:06:36.950Z,100491.75
2022-08-22T14:09:32.395Z,100503.97
2022-08-22T14:12:22.818Z,100498.06
2022-08-22T14:14:56.825Z,100494.75
2022-08-22T14:17:32.617Z,100491.66
2022-08-22T14:20:11.198Z,100493.28
2022-08-22T14:22:40.915Z,100493.88
2022-08-22T14:25:17.045Z,100494.34
2022-08-22T14:27:58.077Z,100481.03
2022-08-22T14:30:29.850Z,100491.00
2022-08-22T14:33:13.206Z,100485.41
2022-08-22T14:35:54.805Z,100480.91
2022-08-22T14:38:40.614Z,100484.81
2022-08-22T14:41:23.444Z,100482.31
2022-08-22T14:44:00.415Z,100480.28
2022-08-22T14:46:53.325Z,100476.78
2022-08-22T14:49:28.635Z,100476.19
2022-08-22T14:52:43.318Z,100470.66
2022-08-22T14:55:20.491Z,100468.34
2022-08-22T14:58:00.588Z,100463.97
2022-08-22T15:00:39.736Z,100467.75
2022-08-22T15:03:15.972Z,100462.91
2022-08-22T15:05:59.286Z,100461.03
2022-08-22T15:08:34.051Z,100460.28
2022-08-22T15:11:22.310Z,100447.34
2022-08-22T15:14:13.690Z,100452.31
2022-08-22T15:16:44.942Z,100446.81
2022-08-22T15:19:27.348Z,100451.91
2022-08-22T15:22:11.226Z,100447.94
2022-08-22T15:24:57.476Z,100444.63
2022-08-22T15:27:26.525Z,100443.91
2022-08-22T15:29:57.640Z,100443.16
2022-08-22T15:32:28.275Z,100441.72
2022-08-22T15:35:08.561Z,100443.44
2022-08-22T15:38:01.568Z,100435.00
2022-08-22T15:40:42.264Z,100441.97
2022-08-22T15:43:23.615Z,100443.25
2022-08-22T15:46:07.081Z,100425.72
2022-08-22T15:48:39.046Z,100428.94
2022-08-22T15:51:10.253Z,100430.41
2022-08-22T15:54:00.687Z,100425.47
2022-08-22T15:56:30.606Z,100428.56
2022-08-22T15:59:21.317Z,100426.63
2022-08-22T16:01:55.133Z,100423.78
2022-08-22T16:04:35.519Z,100427.63
2022-08-22T16:07:19.033Z,100423.06
2022-08-22T16:09:50.466Z,100424.84
2022-08-22T16:12:45.764Z,100425.84
2022-08-22T16:15:56.379Z,100419.03
2022-08-22T16:18:42.642Z,100426.88
2022-08-22T16:21:14.228Z,100422.16
2022-08-22T16:23:49.928Z,100425.19
2022-08-22T16:26:16.532Z,100422.94
2022-08-22T16:28:59.139Z,100430.06
2022-08-22T16:31:33.731Z,100432.25
2022-08-22T16:34:26.073Z,100421.34
2022-08-22T16:37:27.544Z,100432.50
2022-08-22T16:40:01.574Z,100432.28
2022-08-22T16:43:08.336Z,100433.72
2022-08-22T16:45:53.221Z,100435.81
2022-08-22T16:48:33.350Z,100432.75
2022-08-22T16:51:18.708Z,100430.88
2022-08-22T16:54:40.477Z,100438.22
2022-08-22T16:57:30.465Z,100434.69
2022-08-22T17:00:25.749Z,100432.06
2022-08-22T17:02:58.223Z,100434.66
2022-08-22T17:05:46.406Z,100438.94
2022-08-22T17:08:19.589Z,100437.94
2022-08-22T17:11:01.573Z,100442.22
2022-08-22T17:13:33.849Z,100434.63
2022-08-22T17:16:23.741Z,100437.22
2022-08-22T17:19:12.922Z,100442.16
2022-08-22T17:21:51.669Z,100436.56
2022-08-22T17:24:31.824Z,100437.72
2022-08-22T17:27:27.183Z,100442.97
2022-08-22T17:30:02.616Z,100448.13
2022-08-22T17:32:59.851Z,100444.53
2022-08-22T17:35:44.235Z,100448.25
2022-08-22T17:38:51.837Z,100454.50
2022-08-22T17:41:46.011Z,100450.91
2022-08-22T17:44:17.333Z,100455.44
2022-08-22T17:46:55.327Z,100456.81
2022-08-22T17:49:51.019Z,100461.22
2022-08-22T17:52:35.764Z,100458.94
2022-08-22T17:55:12.908Z,100464.47
2022-08-22T17:57:57.515Z,100462.31
2022-08-22T18:00:24.247Z,100469.34
2022-08-22T18:03:02.265Z,100466.03
2022-08-22T18:05:36.488Z,100458.41
2022-08-22T18:11:16.463Z,100461.94
2022-08-22T18:14:05.275Z,100462.00
2022-08-22T18:16:45.889Z,100468.50
2022-08-22T18:19:36.822Z,100466.53
2022-08-22T18:22:12.767Z,100474.72
2022-08-22T18:24:47.889Z,100475.59
2022-08-22T18:27:34.762Z,100476.09
2022-08-22T18:30:11.030Z,100476.63
2022-08-22T18:32:46.794Z,100481.31
2022-08-22T18:35:22.454Z,100488.59
2022-08-22T18:38:19.249Z,100497.44
2022-08-22T18:40:53.620Z,100491.44
2022-08-22T18:43:36.093Z,100497.97
2022-08-22T18:46:24.745Z,100494.28
2022-08-22T18:49:14.180Z,100499.94
2022-08-22T18:51:38.850Z,100500.78
2022-08-22T18:54:05.286Z,100501.78
2022-08-22T18:56:33.059Z,100508.06
2022-08-22T18:59:30.866Z,100504.56
2022-08-22T19:02:18.709Z,100497.56
2022-08-22T19:05:11.949Z,100508.03
2022-08-22T19:07:55.292Z,100514.50
2022-08-22T19:10:58.876Z,100506.81
2022-08-22T19:13:46.454Z,100520.06
2022-08-22T19:16:37.830Z,100530.19
2022-08-22T19:19:50.458Z,100525.31
2022-08-22T19:22:19.854Z,100523.13
2022-08-22T19:25:27.725Z,100524.09
2022-08-22T19:28:06.305Z,100537.81
2022-08-22T19:31:21.621Z,100531.50
2022-08-22T19:34:13.693Z,100538.94
2022-08-22T19:36:40.565Z,100539.06
2022-08-22T19:39:09.722Z,100539.38
2022-08-22T19:41:58.017Z,100534.75
2022-08-22T19:44:27.357Z,100541.00
2022-08-22T19:47:29.289Z,100540.00
2022-08-22T19:50:16.849Z,100541.94
2022-08-22T19:53:03.190Z,100543.19
2022-08-22T19:55:38.874Z,100544.16
2022-08-22T19:58:10.177Z,100546.25
2022-08-22T20:00:54.269Z,100539.91
2022-08-22T20:03:40.574Z,100535.53
2022-08-22T20:06:44.095Z,100541.63
2022-08-22T20:09:23.342Z,100537.94
2022-08-22T20:12:13.274Z,100540.03
2022-08-22T20:14:44.566Z,100544.97
2022-08-22T20:17:25.937Z,100542.78
2022-08-22T20:23:00.533Z,100558.25
2022-08-22T20:25:42.500Z,100557.78
2022-08-22T20:28:29.827Z,100562.22
2022-08-22T20:31:07.548Z,100559.31
2022-08-22T20:33:37.815Z,100565.03
2022-08-22T20:36:18.578Z,100567.66
2022-08-22T20:38:58.979Z,100563.59
2022-08-22T20:41:40.517Z,100560.34
2022-08-22T20:44:12.454Z,100564.75
2022-08-22T20:46:55.067Z,100566.28
2022-08-22T20:49:29.409Z,100562.56
2022-08-22T20:51:59.462Z,100562.41
2022-08-22T20:54:30.935Z,100563.97
2022-08-22T20:57:16.901Z,100561.03
2022-08-22T20:59:52.787Z,100567.38
2022-08-22T21:02:24.368Z,100561.94
2022-08-22T21:04:57.129Z,100561.50
2022-08-22T21:07:32.978Z,100568.38
2022-08-22T21:10:39.815Z,100559.78
2022-08-22T21:13:28.269Z,100568.91
2022-08-22T21:15:59.933Z,100567.59
2022-08-22T21:18:33.877Z,100565.41
2022-08-22T21:21:18.032Z,100566.34
2022-08-22T21:23:47.296Z,100574.84
2022-08-22T21:26:19.694Z,100569.31
2022-08-22T21:28:49.174Z,100569.41
2022-08-22T21:31:21.322Z,100579.56
2022-08-22T21:33:50.436Z,100579.94
2022-08-22T21:36:20.522Z,100589.28
2022-08-22T21:38:52.568Z,100585.69
2022-08-22T21:42:07.733Z,100590.03
2022-08-22T21:44:37.043Z,100588.72
2022-08-22T21:47:30.902Z,100587.97
2022-08-22T21:50:13.109Z,100580.69
2022-08-22T21:53:00.148Z,100589.22
2022-08-22T21:55:30.492Z,100587.59
2022-08-22T21:58:06.486Z,100591.00
2022-08-22T22:00:48.569Z,100589.91
2022-08-22T22:03:17.753Z,100602.06
2022-08-22T22:05:44.676Z,100598.47
2022-08-22T22:08:11.881Z,100601.31
2022-08-22T22:10:40.679Z,100605.06
2022-08-22T22:13:08.266Z,100614.34
2022-08-22T22:15:40.267Z,100611.59
2022-08-22T22:18:06.910Z,100611.66
2022-08-22T22:20:34.044Z,100617.59
2022-08-22T22:23:00.601Z,100614.03
2022-08-22T22:25:40.759Z,100618.56
2022-08-22T22:28:30.899Z,100615.78
2022-08-22T22:30:57.415Z,100618.06
2022-08-22T22:33:29.929Z,100630.44
2022-08-22T22:35:59.904Z,100621.78
2022-08-22T22:38:26.369Z,100627.66
2022-08-22T22:40:52.899Z,100629.38
2022-08-22T22:43:19.651Z,100629.66
2022-08-22T22:45:46.276Z,100626.63
2022-08-22T22:48:17.411Z,100627.53
2022-08-22T22:50:50.883Z,100635.69
2022-08-22T22:53:19.514Z,100634.03
2022-08-22T22:55:48.066Z,100625.69
2022-08-22T22:58:27.369Z,100633.59
2022-08-22T23:00:53.829Z,100633.59
2022-08-22T23:03:21.428Z,100634.72
2022-08-22T23:05:47.936Z,100637.28
2022-08-22T23:08:14.341Z,100631.41
2022-08-22T23:10:40.782Z,100639.28
2022-08-22T23:13:07.269Z,100635.97
2022-08-22T23:15:33.671Z,100641.59
2022-08-22T23:18:00.414Z,100646.09
2022-08-22T23:20:26.944Z,100643.00
2022-08-22T23:22:53.424Z,100648.88
2022-08-22T23:25:19.953Z,100650.03
2022-08-22T23:27:58.990Z,100660.66
2022-08-22T23:30:25.625Z,100662.09
2022-08-22T23:32:52.057Z,100651.47
2022-08-22T23:35:18.463Z,100653.44
2022-08-22T23:37:44.966Z,100659.31
2022-08-22T23:40:11.677Z,100656.81
2022-08-22T23:42:38.197Z,100662.97
2022-08-22T23:45:05.117Z,100657.38
2022-08-22T23:49:57.948Z,100666.91
2022-08-22T23:52:25.368Z,100671.16
2022-08-22T23:54:54.509Z,100673.69
2022-08-22T23:57:26.358Z,100668.41
2022-08-22T23:59:57.826Z,100676.53
